• Join FlightAware (Why Join?)
  • Login
  • US Flag 
Gobble Gobble! 
10:32PM EST


 

Airport Tracker/Info


-or-


 

Live Flight TrackerFlight Track Log ✈ TCF3494 ✈ 22-Apr-2013 ✈ KLGA - KORD

Flight Track Log - Related Links

Times and Time Zones

All times are in EDT time to prevent confusion due to time zone crossing. See the TCF3494 flight status page for this flight to view local times or setup timezone preferences in your user account.

Time Position Orientation Groundspeed Altitude Reporting Facility
EDT Latitude Longitude Course Direction KTS MPH feet Rate Location/Type
08:58PM 40.7667 -73.8000 299° West 208 239 3,600  Level New York TRACON
09:00PM 40.9340 -74.2345 304° West  Level FlightAware Approximate
09:00PM 40.9000 -73.8333 349° North 289 333 7,100  Level New York TRACON
09:01PM 40.9818 -74.3303 304° West  Level FlightAware Approximate
09:01PM 40.9500 -73.9000 315° West 288 331 7,800  Level New York TRACON
09:02PM 41.0240 -74.4307 299° West  Level FlightAware Approximate
09:02PM 40.9667 -74.0000 282° West 283 326 11,700  Level New York TRACON
09:03PM 41.0659 -74.5314 299° West  Level FlightAware Approximate
09:03PM 41.0000 -74.1000 294° West 294 338 14,500  Level New York TRACON
09:04PM 41.0333 -74.1833 298° West 325 374 15,100 600 Climbing New York TRACON
09:05PM 41.1333 -74.2167 346° North 323 372 15,800 540 Climbing New York TRACON
09:06PM 41.2039 -74.2567 337° Northwest 332 382 16,100 120 Climbing New York Center
09:07PM 41.2033 -74.3478 270° West 311 358 16,100  Level New York Center
09:08PM 41.1783 -74.4786 256° West 327 376 16,100 -60 Level New York Center
09:09PM 41.1583 -74.5850 256° West 332 382 16,000 900 Descending New York Center
09:10PM 41.1478 -74.7167 264° West 338 389 18,000 2,040 Climbing New York Center
09:11PM 41.1881 -74.8156 298° West 320 368 20,200 2,640 Climbing New York Center
09:12PM 41.2383 -74.9317 300° West 340 391 23,200 2,700 Climbing New York Center
09:13PM 41.2903 -75.0481 301° West 364 419 25,600 2,280 Climbing New York Center
09:14PM 41.3422 -75.1703 300° West 374 430 27,900 2,040 Climbing New York Center
09:15PM 41.3958 -75.2953 300° West 379 436 29,700 1,620 Climbing New York Center
09:16PM 41.4492 -75.4236 299° West 386 444 31,200 1,560 Climbing New York Center
09:17PM 41.4961 -75.5514 296° West 391 450 32,900 1,440 Climbing New York Center
09:18PM 41.5286 -75.6728 290° West 385 443 34,200 1,380 Climbing New York Center
09:19PM 41.5725 -75.8147 292° West 385 443 35,700 900 Climbing New York Center
09:20PM 41.6086 -75.9478 290° West 385 443 36,000 120 Climbing New York Center
09:21PM 41.6464 -76.0786 291° West 380 437 36,000  Level New York Center
09:22PM 41.7144 -76.3294 290° West 378 435 36,000  Level Cleveland Center
09:23PM 41.7506 -76.4636 290° West 378 435 36,000  Level Cleveland Center
09:24PM 41.7908 -76.6003 292° West 389 448 36,000  Level Cleveland Center
09:25PM 41.8267 -76.7317 290° West 389 448 36,000  Level Cleveland Center
09:26PM 41.8644 -76.8689 290° West 389 448 36,000  Level Cleveland Center
09:27PM 41.9022 -77.0036 291° West 389 448 36,000  Level Cleveland Center
09:28PM 41.9378 -77.1411 289° West 389 448 36,000  Level Cleveland Center
09:29PM 41.9772 -77.2786 291° West 389 448 36,000  Level Cleveland Center
09:30PM 42.0144 -77.4167 290° West 389 448 36,000  Level Cleveland Center
09:31PM 42.0514 -77.5544 290° West 389 448 36,000  Level Cleveland Center
09:32PM 42.0883 -77.6928 290° West 394 453 36,000  Level Cleveland Center
09:33PM 42.1231 -77.8311 289° West 394 453 36,000  Level Cleveland Center
09:34PM 42.1594 -77.9669 290° West 394 453 36,000  Level Cleveland Center
09:35PM 42.1939 -78.1056 289° West 394 453 36,000  Level Cleveland Center
09:36PM 42.2322 -78.2444 290° West 394 453 36,000  Level Cleveland Center
09:37PM 42.2661 -78.3833 288° West 399 459 36,000  Level Cleveland Center
09:38PM 42.2997 -78.5086 290° West 399 459 36,000  Level Cleveland Center
09:39PM 42.3356 -78.6506 289° West 399 459 36,000  Level Cleveland Center
09:40PM 42.3714 -78.7928 289° West 399 459 36,000  Level Cleveland Center
09:41PM 42.4047 -78.9325 288° West 399 459 36,000  Level Cleveland Center
09:42PM 42.4400 -79.0722 289° West 399 459 36,000  Level Cleveland Center
09:43PM 42.4772 -79.2150 290° West 399 459 36,000  Level Cleveland Center
09:44PM 42.4997 -79.3611 282° West 398 458 36,000  Level Cleveland Center
09:45PM 42.5053 -79.5072 273° West 392 451 36,000  Level Cleveland Center
09:46PM 42.5086 -79.6536 272° West 387 445 36,000  Level Cleveland Center
09:47PM 42.5181 -79.8000 275° West 387 445 36,000  Level Cleveland Center
09:48PM 42.5272 -79.9464 275° West 387 445 36,000  Level Cleveland Center
09:49PM 42.5300 -80.1069 271° West 387 445 36,000  Level Cleveland Center
09:50PM 42.5369 -80.2536 274° West 387 445 36,000  Level Cleveland Center
09:51PM 42.5414 -80.4000 272° West 387 445 36,000  Level Cleveland Center
09:52PM 42.5456 -80.5467 272° West 387 445 36,000  Level Cleveland Center
09:53PM 42.5519 -80.6761 274° West 387 445 36,000  Level Cleveland Center
09:54PM 42.5578 -80.8228 273° West 387 445 36,000  Level Cleveland Center
09:55PM 42.5636 -80.9722 273° West 387 445 36,000  Level Cleveland Center
09:56PM 42.5694 -81.1189 273° West 387 445 36,000  Level Cleveland Center
09:57PM 42.5728 -81.2628 272° West 382 440 36,000  Level Cleveland Center
09:58PM 42.5781 -81.4064 273° West 389 448 36,000  Level Cleveland Center
09:59PM 42.6000 -81.5450 282° West 381 438 36,000  Level Cleveland Center
10:01PM 42.6227 -81.6987 281° West  Level FlightAware Approximate
10:01PM 42.6514 -81.8450 281° West 388 447 36,000  Level Cleveland Center
10:02PM 42.6747 -81.9867 283° West 393 452 36,000  Level Cleveland Center
10:03PM 42.6942 -82.1000 283° West 393 452 36,000  Level Cleveland Center
10:04PM 42.7250 -82.2706 284° West 393 452 36,000  Level Cleveland Center
10:05PM 42.7461 -82.3983 283° West 393 452 36,000  Level Cleveland Center
10:06PM 42.7708 -82.5403 283° West 393 452 36,000  Level Cleveland Center
10:07PM 42.7850 -82.6850 278° West 393 452 36,000  Level Cleveland Center
10:08PM 42.7947 -82.8242 275° West 388 447 36,000  Level Cleveland Center
10:09PM 42.8025 -82.9658 274° West 388 447 36,000  Level Cleveland Center
10:10PM 42.8117 -83.1133 275° West 388 447 36,000  Level Cleveland Center
10:11PM 42.8189 -83.2581 274° West 388 447 36,000  Level Cleveland Center
10:12PM 42.8281 -83.4000 275° West 388 447 36,000  Level Cleveland Center
10:13PM 42.8347 -83.5478 274° West 388 447 36,000  Level Cleveland Center
10:14PM 42.8414 -83.6925 274° West 388 447 36,000  Level Cleveland Center
10:15PM 42.8497 -83.8372 275° West 388 447 36,000  Level Cleveland Center
10:16PM 42.8558 -83.9878 273° West 388 447 36,000 -60 Level Cleveland Center
10:17PM 42.8619 -84.1353 273° West 388 447 35,900 -1,500 Descending Cleveland Center
10:19PM 42.8772 -84.4367 274° West 391 450 31,700 -2,040 Descending Chicago Center
10:20PM 42.8828 -84.5836 273° West 389 448 30,000 -840 Descending Chicago Center
10:21PM 42.8686 -84.7308 263° West 393 452 30,000  Level Chicago Center
10:22PM 42.8539 -84.8758 262° West 390 449 30,000  Level Chicago Center
10:23PM 42.8386 -85.0214 262° West 388 447 30,000  Level Chicago Center
10:24PM 42.8222 -85.1686 261° West 393 452 30,000  Level Chicago Center
10:25PM 42.8067 -85.3161 262° West 393 452 30,000 -840 Level Chicago Center
10:26PM 42.7908 -85.4628 262° West 393 452 28,300 -1,860 Descending Chicago Center
10:27PM 42.7675 -85.6033 257° West 381 438 26,200 -2,160 Descending Chicago Center
10:28PM 42.7386 -85.7667 257° West 371 427 23,900 -2,100 Descending Chicago Center
10:30PM 42.7147 -85.8972 256° West 357 411 22,000 -1,860 Descending Chicago Center
10:31PM 42.6917 -86.0228 256° West 345 397 20,200 -1,020 Descending Chicago Center
10:32PM 42.6692 -86.1475 256° West 339 390 20,000 -120 Descending Chicago Center
10:33PM 42.6467 -86.2722 256° West 339 390 20,000  Level Chicago Center
10:34PM 42.6228 -86.3942 255° West 335 386 20,000  Level Chicago Center
10:35PM 42.6006 -86.5158 256° West 333 383 20,000  Level Chicago Center
10:36PM 42.5772 -86.6389 256° West 336 387 20,000 -840 Level Chicago Center
10:37PM 42.5525 -86.7622 255° West 335 386 18,300 -1,680 Descending Chicago Center
10:38PM 42.5200 -86.8764 249° West 329 379 16,600 -1,680 Descending Chicago Center
10:39PM 42.4886 -86.9894 249° West 326 375 14,900 -1,860 Descending Chicago Center
10:40PM 42.4533 -87.1181 250° West 308 354 12,900 -1,800 Descending Chicago Center
10:41PM 42.4242 -87.2239 250° West 302 348 11,300 -1,440 Descending Chicago Center
10:42PM 42.3956 -87.3292 250° West 299 344 10,000 -660 Descending Chicago Center
10:43PM 42.3681 -87.4272 249° West 289 333 10,000  Level Chicago Center
10:44PM 42.3394 -87.5297 249° West 291 335 10,000  Level Chicago Center
10:45PM 42.2789 -87.5986 220° Southwest 291 335 10,000  Level Chicago Center
10:46PM 42.2031 -87.6794 218° Southwest 291 335 10,000 -120 Level Chicago Center
10:47PM 42.1400 -87.7436 217° Southwest 287 330 9,800 -780 Descending Chicago Center
10:48PM 42.1000 -87.8000 226° Southwest 264 304 8,700 -1,560 Descending Chicago TRACON
10:49PM 42.1000 -87.9000 270° West 269 310 7,100 -900 Descending Chicago TRACON
10:50PM 42.1000 -87.9833 270° West 230 265 7,000 -480 Descending Chicago TRACON
10:51PM 42.0833 -88.0667 255° West 217 250 6,100 -1,200 Descending Chicago TRACON
10:52PM 42.0833 -88.1500 270° West 217 250 4,700 -1,380 Descending Chicago TRACON
10:52PM 42.0758 -88.1461 159° South 214 246 4,400 -1,080 Descending Chicago Center
10:53PM 42.0256 -88.1456 180° South 191 220 3,300 -720 Descending Chicago Center
10:54PM 41.9861 -88.1125 148° Southeast 185 213 3,000 -240 Descending Chicago Center
10:55PM 41.9833 -88.0667 95° East 174 200 3,000  Level Chicago TRACON